Terminal Aerodrome Forecast
Issued by NWS

Home | Current Version | Previous Version | Text Only | Print | Product List | Glossary On
Versions: 1 2 3 4 5 6 7 8 9 10 11 12 13 14 15 16 17 18 19 20 21 22 23 24 25 26 27
000
FTUS41 KBOX 200538
TAFFMH
TAF
KFMH 200538Z 2006/2106 VRB03KT P6SM SCT035
     FM201400 20009KT P6SM FEW250
     FM201800 20013KT P6SM FEW250
     FM210000 19009KT P6SM SCT250
     FM210300 19007KT P6SM BKN070=

USA.gov is the U.S. government's official web portal to all federal, state and local government web resources and services.